Time;durP1;ratioP1;P1;durP2;ratioP2;P2;SDS_P1;SDS_P2;PMS_P1;PMS_P2;Temp;Humidity;BMP_temperature;BMP_pressure;BME280_temperature;BME280_humidity;BME280_pressure;Samples;Min_cycle;Max_cycle;Signal;HPM_P1;HPM_P2
2022/04/11 00:01:26;;;;;;;5.03;2.80;;;;;;;;;;5015835;28;20052;-72
2022/04/11 00:03:51;;;;;;;5.97;3.22;;;;;;;;;;5033538;28;20108;-72
2022/04/11 00:06:17;;;;;;;4.32;2.90;;;;;;;;;;5033548;28;20034;-71
2022/04/11 00:08:42;;;;;;;5.35;3.25;;;;;;;;;;5033019;28;20338;-72
2022/04/11 00:11:07;;;;;;;4.85;3.15;;;;;;;;;;5033317;28;20022;-71
2022/04/11 00:13:33;;;;;;;4.35;3.05;;;;;;;;;;5033329;28;20021;-71
2022/04/11 00:15:59;;;;;;;5.95;3.40;;;;;;;;;;5033529;28;20026;-72
2022/04/11 00:18:24;;;;;;;4.15;2.80;;;;;;;;;;5032987;28;20045;-72
2022/04/11 00:20:50;;;;;;;6.00;2.85;;;;;;;;;;5033321;28;20037;-72
2022/04/11 00:23:16;;;;;;;4.25;3.10;;;;;;;;;;5033092;28;20033;-72
2022/04/11 00:25:42;;;;;;;4.60;3.20;;;;;;;;;;5033096;28;20112;-72
2022/04/11 00:28:07;;;;;;;7.25;3.55;;;;;;;;;;5032750;28;20036;-72
2022/04/11 00:30:32;;;;;;;10.30;4.72;;;;;;;;;;5032993;28;20029;-71
2022/04/11 00:32:58;;;;;;;8.20;4.45;;;;;;;;;;5032963;28;20039;-72
2022/04/11 00:35:23;;;;;;;4.82;3.70;;;;;;;;;;5032971;28;20029;-72
2022/04/11 00:37:49;;;;;;;5.35;3.90;;;;;;;;;;5032875;28;20029;-72
2022/04/11 00:40:14;;;;;;;6.50;3.42;;;;;;;;;;5032626;28;20027;-71
2022/04/11 00:42:40;;;;;;;4.95;3.17;;;;;;;;;;5033147;28;20029;-71
2022/04/11 00:45:06;;;;;;;6.35;3.80;;;;;;;;;;5032840;28;20021;-72
2022/04/11 00:47:32;;;;;;;6.43;3.70;;;;;;;;;;5032747;28;20025;-72
2022/04/11 00:50:04;;;;;;;6.65;3.78;;;;;;;;;;5032428;28;20025;-72
2022/04/11 00:52:32;;;;;;;5.65;3.72;;;;;;;;;;5032709;28;20048;-72
2022/04/11 00:54:58;;;;;;;4.82;3.35;;;;;;;;;;5031531;28;20036;-72
2022/04/11 00:57:24;;;;;;;6.13;3.67;;;;;;;;;;5032566;28;20029;-72
2022/04/11 00:59:50;;;;;;;6.53;3.50;;;;;;;;;;5032421;28;20023;-72
2022/04/11 01:02:15;;;;;;;6.05;3.80;;;;;;;;;;5032464;28;20036;-72
2022/04/11 01:04:41;;;;;;;6.93;4.07;;;;;;;;;;5032416;28;20025;-71
2022/04/11 01:07:08;;;;;;;8.13;4.28;;;;;;;;;;5032158;28;20104;-71
2022/04/11 01:09:34;;;;;;;6.60;4.40;;;;;;;;;;5032009;28;20018;-72
2022/04/11 01:12:00;;;;;;;6.13;3.83;;;;;;;;;;5032373;28;20021;-72
2022/04/11 01:14:25;;;;;;;8.18;4.50;;;;;;;;;;5032246;28;20493;-72
2022/04/11 01:16:52;;;;;;;6.07;4.15;;;;;;;;;;5032244;28;20025;-72
2022/04/11 01:19:19;;;;;;;6.18;4.10;;;;;;;;;;5031757;28;20025;-72
2022/04/11 01:21:45;;;;;;;8.05;4.55;;;;;;;;;;5032025;28;20039;-72
2022/04/11 01:24:11;;;;;;;5.30;3.90;;;;;;;;;;5032081;28;20029;-72
2022/04/11 01:26:37;;;;;;;7.30;4.28;;;;;;;;;;5032092;28;20040;-72
2022/04/11 01:29:04;;;;;;;7.10;4.32;;;;;;;;;;5031518;28;20120;-72
2022/04/11 01:31:29;;;;;;;7.80;4.78;;;;;;;;;;5032002;28;20104;-72
2022/04/11 01:33:55;;;;;;;7.28;4.22;;;;;;;;;;5032093;28;20648;-72
2022/04/11 01:36:20;;;;;;;6.95;4.28;;;;;;;;;;5031821;28;20482;-72
2022/04/11 01:38:45;;;;;;;9.15;4.90;;;;;;;;;;5031635;28;20021;-72
2022/04/11 01:41:11;;;;;;;6.22;3.95;;;;;;;;;;5031746;28;20037;-72
2022/04/11 01:43:36;;;;;;;6.75;4.10;;;;;;;;;;5031706;28;20464;-72
2022/04/11 01:46:01;;;;;;;6.78;4.20;;;;;;;;;;5031670;28;20064;-72
2022/04/11 01:48:26;;;;;;;5.55;4.50;;;;;;;;;;5031346;28;20391;-72
2022/04/11 01:50:52;;;;;;;5.85;3.95;;;;;;;;;;5031461;28;20479;-72
2022/04/11 01:53:19;;;;;;;6.70;4.28;;;;;;;;;;5031572;28;20054;-72
2022/04/11 01:55:44;;;;;;;6.72;4.00;;;;;;;;;;5031372;28;20059;-72
2022/04/11 01:58:11;;;;;;;5.53;3.97;;;;;;;;;;5031056;28;20064;-72
2022/04/11 02:00:37;;;;;;;5.47;4.20;;;;;;;;;;5013316;28;20033;-72
2022/04/11 02:03:04;;;;;;;7.65;4.38;;;;;;;;;;5031220;28;20036;-72
2022/04/11 02:05:30;;;;;;;5.90;3.75;;;;;;;;;;5030884;28;20467;-72
2022/04/11 02:07:56;;;;;;;4.80;3.50;;;;;;;;;;5030912;28;20032;-72
2022/04/11 02:10:23;;;;;;;5.43;3.83;;;;;;;;;;5031161;28;20157;-72
2022/04/11 02:12:50;;;;;;;5.75;3.92;;;;;;;;;;5031136;28;20033;-72
2022/04/11 02:15:16;;;;;;;6.65;4.20;;;;;;;;;;5030961;28;20468;-72
2022/04/11 02:17:42;;;;;;;7.10;4.40;;;;;;;;;;5030937;28;20060;-72
2022/04/11 02:20:08;;;;;;;5.78;4.20;;;;;;;;;;5030595;28;20029;-72
2022/04/11 02:22:50;;;;;;;6.05;4.03;;;;;;;;;;5030936;28;20033;-71
2022/04/11 02:25:17;;;;;;;4.78;3.50;;;;;;;;;;5030842;28;20084;-72
2022/04/11 02:27:44;;;;;;;5.63;3.97;;;;;;;;;;5031215;28;20053;-72
2022/04/11 02:30:10;;;;;;;5.57;3.50;;;;;;;;;;5030702;28;20513;-72
2022/04/11 02:32:36;;;;;;;5.68;4.07;;;;;;;;;;5031001;28;20021;-72
2022/04/11 02:35:02;;;;;;;6.22;3.47;;;;;;;;;;5030773;28;20055;-72
2022/04/11 02:37:27;;;;;;;5.50;4.45;;;;;;;;;;5030687;28;20425;-72
2022/04/11 02:39:52;;;;;;;6.38;3.63;;;;;;;;;;5030413;28;20113;-72
2022/04/11 02:42:24;;;;;;;6.35;4.10;;;;;;;;;;5030654;28;20502;-72
2022/04/11 02:44:50;;;;;;;10.23;5.13;;;;;;;;;;5030543;28;20029;-72
2022/04/11 02:47:16;;;;;;;5.72;4.00;;;;;;;;;;5030438;28;20028;-72
2022/04/11 02:49:41;;;;;;;4.80;3.58;;;;;;;;;;5030360;28;20079;-72
2022/04/11 02:52:07;;;;;;;5.72;3.85;;;;;;;;;;5030355;28;20137;-72
2022/04/11 02:54:32;;;;;;;6.70;3.53;;;;;;;;;;5030413;28;20384;-72
2022/04/11 02:56:57;;;;;;;6.88;4.32;;;;;;;;;;5030294;28;20029;-72
2022/04/11 02:59:23;;;;;;;8.60;5.30;;;;;;;;;;5030014;28;20105;-72
2022/04/11 03:01:49;;;;;;;5.35;3.78;;;;;;;;;;5030234;28;20390;-72
2022/04/11 03:04:16;;;;;;;7.13;4.03;;;;;;;;;;5030350;28;20029;-72
2022/04/11 03:06:41;;;;;;;5.78;3.80;;;;;;;;;;5030114;28;20116;-72
2022/04/11 03:09:08;;;;;;;5.97;3.58;;;;;;;;;;5029955;28;20104;-72
2022/04/11 03:11:33;;;;;;;6.53;3.90;;;;;;;;;;5030171;28;20443;-72
2022/04/11 03:13:59;;;;;;;5.57;3.85;;;;;;;;;;5030222;28;20049;-72
2022/04/11 03:16:24;;;;;;;6.22;3.70;;;;;;;;;;5029964;28;20025;-72
2022/04/11 03:18:49;;;;;;;6.97;4.45;;;;;;;;;;5029376;28;20104;-72
2022/04/11 03:21:15;;;;;;;5.38;4.07;;;;;;;;;;5029945;28;20022;-72
2022/04/11 03:23:40;;;;;;;7.60;4.18;;;;;;;;;;5030138;28;20049;-72
2022/04/11 03:26:05;;;;;;;7.65;4.22;;;;;;;;;;5030233;28;20036;-72
2022/04/11 03:28:30;;;;;;;7.00;3.97;;;;;;;;;;5029953;28;20045;-72
2022/04/11 03:30:56;;;;;;;5.63;3.58;;;;;;;;;;5029870;28;20025;-72
2022/04/11 03:33:21;;;;;;;4.20;3.58;;;;;;;;;;5030132;28;20121;-72
2022/04/11 03:35:46;;;;;;;6.22;3.60;;;;;;;;;;5030070;28;20025;-72
2022/04/11 03:38:12;;;;;;;5.88;3.78;;;;;;;;;;5029911;28;20061;-71
2022/04/11 03:40:37;;;;;;;4.65;3.70;;;;;;;;;;5030227;28;20387;-72
2022/04/11 03:43:04;;;;;;;4.82;3.42;;;;;;;;;;5030025;28;20472;-72
2022/04/11 03:45:29;;;;;;;5.25;3.90;;;;;;;;;;5030732;28;20112;-72
2022/04/11 03:47:54;;;;;;;6.03;3.88;;;;;;;;;;5029882;28;20478;-72
2022/04/11 03:50:20;;;;;;;5.13;3.38;;;;;;;;;;5029930;28;20032;-72
2022/04/11 03:52:46;;;;;;;7.38;3.90;;;;;;;;;;5029637;28;20063;-72
2022/04/11 03:55:11;;;;;;;5.95;3.53;;;;;;;;;;5030013;28;20025;-72
2022/04/11 03:57:37;;;;;;;4.20;3.22;;;;;;;;;;5029662;28;20204;-72
2022/04/11 04:00:04;;;;;;;3.40;3.00;;;;;;;;;;5029410;28;20093;-72
2022/04/11 04:02:29;;;;;;;6.95;3.72;;;;;;;;;;5029646;28;20030;-72
2022/04/11 04:04:55;;;;;;;3.95;3.25;;;;;;;;;;5029740;28;20483;-72
2022/04/11 04:07:20;;;;;;;4.75;3.10;;;;;;;;;;5029740;28;20040;-72
2022/04/11 04:09:46;;;;;;;5.63;3.50;;;;;;;;;;5029535;28;20014;-72
2022/04/11 04:12:11;;;;;;;6.20;3.63;;;;;;;;;;5029655;28;20084;-72
2022/04/11 04:14:37;;;;;;;6.38;4.00;;;;;;;;;;5029623;28;20036;-72
2022/04/11 04:17:03;;;;;;;5.70;3.63;;;;;;;;;;5029541;28;20494;-72
2022/04/11 04:19:28;;;;;;;5.43;3.28;;;;;;;;;;5029338;28;20022;-72
2022/04/11 04:21:53;;;;;;;5.28;3.50;;;;;;;;;;5029665;28;20104;-72
2022/04/11 04:24:22;;;;;;;4.07;3.33;;;;;;;;;;5029699;28;20026;-72
2022/04/11 04:26:50;;;;;;;7.03;3.13;;;;;;;;;;5029443;28;20032;-72
2022/04/11 04:29:16;;;;;;;4.20;3.20;;;;;;;;;;5030746;28;20037;-72
2022/04/11 04:31:42;;;;;;;5.55;3.50;;;;;;;;;;5032918;28;20029;-72
2022/04/11 04:34:08;;;;;;;4.72;3.42;;;;;;;;;;5033023;28;20025;-72
2022/04/11 04:36:33;;;;;;;9.45;3.47;;;;;;;;;;5033008;28;20050;-72
2022/04/11 04:38:58;;;;;;;7.55;4.75;;;;;;;;;;5032770;28;20025;-72
2022/04/11 04:41:24;;;;;;;6.30;3.53;;;;;;;;;;5032819;28;20017;-72
2022/04/11 04:43:49;;;;;;;7.70;3.45;;;;;;;;;;5033222;28;20480;-72
2022/04/11 04:46:14;;;;;;;6.68;3.40;;;;;;;;;;5032705;28;20064;-72
2022/04/11 04:48:40;;;;;;;6.22;4.30;;;;;;;;;;5032487;28;20017;-72
2022/04/11 04:51:08;;;;;;;7.47;3.75;;;;;;;;;;5032748;28;20364;-72
2022/04/11 04:53:33;;;;;;;7.25;4.07;;;;;;;;;;5032636;28;20022;-72
2022/04/11 04:55:58;;;;;;;6.85;3.80;;;;;;;;;;5032634;28;20415;-72
2022/04/11 04:58:24;;;;;;;7.45;3.95;;;;;;;;;;5032040;28;20074;-72
2022/04/11 05:00:49;;;;;;;4.90;3.72;;;;;;;;;;5032862;28;20124;-73
2022/04/11 05:03:14;;;;;;;5.93;4.55;;;;;;;;;;5032489;28;20139;-73
2022/04/11 05:05:40;;;;;;;7.63;3.90;;;;;;;;;;5032538;28;20017;-73
2022/04/11 05:08:06;;;;;;;6.45;4.20;;;;;;;;;;5032107;28;20088;-73
2022/04/11 05:10:31;;;;;;;4.70;3.53;;;;;;;;;;5032301;28;20541;-73
2022/04/11 05:12:56;;;;;;;6.95;3.60;;;;;;;;;;5032218;28;20021;-72
2022/04/11 05:15:23;;;;;;;6.05;4.10;;;;;;;;;;5032681;28;20361;-73
2022/04/11 05:17:48;;;;;;;5.95;3.63;;;;;;;;;;5032485;28;20025;-73
2022/04/11 05:20:14;;;;;;;7.03;3.47;;;;;;;;;;5014176;28;20059;-73
2022/04/11 05:22:39;;;;;;;7.93;4.15;;;;;;;;;;5032117;28;20501;-72
2022/04/11 05:25:05;;;;;;;6.38;4.18;;;;;;;;;;5032090;28;20032;-72
2022/04/11 05:27:31;;;;;;;5.32;4.10;;;;;;;;;;5031620;28;20052;-72
2022/04/11 05:29:56;;;;;;;6.60;3.88;;;;;;;;;;5031788;28;20021;-72
2022/04/11 05:32:21;;;;;;;17.73;8.98;;;;;;;;;;5031775;28;20032;-73
2022/04/11 05:34:46;;;;;;;16.13;7.85;;;;;;;;;;5031989;28;20025;-72
2022/04/11 05:37:12;;;;;;;12.50;6.88;;;;;;;;;;5031709;28;20029;-72
2022/04/11 05:39:38;;;;;;;8.57;5.78;;;;;;;;;;5031553;28;20037;-72
2022/04/11 05:42:04;;;;;;;5.70;4.38;;;;;;;;;;5031042;28;20033;-73
2022/04/11 05:44:30;;;;;;;8.23;5.28;;;;;;;;;;5031769;28;20021;-72
2022/04/11 05:46:56;;;;;;;7.65;5.57;;;;;;;;;;5031653;28;20087;-72
2022/04/11 05:49:22;;;;;;;12.13;4.53;;;;;;;;;;5031442;28;20076;-72
2022/04/11 05:51:47;;;;;;;7.47;4.80;;;;;;;;;;5031723;28;20078;-72
2022/04/11 05:54:13;;;;;;;7.47;4.75;;;;;;;;;;5031366;28;20100;-72
2022/04/11 05:56:38;;;;;;;7.40;4.32;;;;;;;;;;5031279;28;20029;-72
2022/04/11 05:59:04;;;;;;;7.10;4.10;;;;;;;;;;5013237;28;20033;-72
2022/04/11 06:01:30;;;;;;;7.05;4.60;;;;;;;;;;5031505;28;20426;-73
2022/04/11 06:03:56;;;;;;;7.68;4.47;;;;;;;;;;5021627;28;20100;-72
2022/04/11 06:06:21;;;;;;;6.47;4.15;;;;;;;;;;5018002;28;20124;-72
2022/04/11 06:08:47;;;;;;;5.00;3.80;;;;;;;;;;5025566;28;20045;-72
2022/04/11 06:11:12;;;;;;;7.97;4.25;;;;;;;;;;5027256;28;20037;-72
2022/04/11 06:13:41;;;;;;;5.15;3.88;;;;;;;;;;5027833;28;20114;-72
2022/04/11 06:16:06;;;;;;;5.80;3.75;;;;;;;;;;5026723;28;20029;-73
2022/04/11 06:18:32;;;;;;;6.80;3.58;;;;;;;;;;5026492;28;20087;-72
2022/04/11 06:20:57;;;;;;;5.72;4.15;;;;;;;;;;5026015;28;20117;-72
2022/04/11 06:23:22;;;;;;;8.68;3.83;;;;;;;;;;5016685;28;20025;-72
2022/04/11 06:25:48;;;;;;;9.75;6.55;;;;;;;;;;5026971;28;20415;-72
2022/04/11 06:28:13;;;;;;;11.25;4.97;;;;;;;;;;5026116;28;20025;-73
2022/04/11 06:30:38;;;;;;;9.15;3.88;;;;;;;;;;5026863;28;20037;-72
2022/04/11 06:33:04;;;;;;;7.78;4.00;;;;;;;;;;5027362;28;20025;-71
2022/04/11 06:35:29;;;;;;;5.80;4.10;;;;;;;;;;5025952;28;20087;-72
2022/04/11 06:37:54;;;;;;;5.47;4.60;;;;;;;;;;5026465;28;20041;-72
2022/04/11 06:40:19;;;;;;;8.95;5.75;;;;;;;;;;5026990;28;20348;-72
2022/04/11 06:42:45;;;;;;;4.88;3.72;;;;;;;;;;5025929;28;20502;-73
2022/04/11 06:45:10;;;;;;;6.13;3.38;;;;;;;;;;5026375;28;20049;-72
2022/04/11 06:47:36;;;;;;;5.60;3.38;;;;;;;;;;5027386;28;20287;-72
2022/04/11 06:50:01;;;;;;;5.00;3.63;;;;;;;;;;5026025;28;20062;-73
2022/04/11 06:52:26;;;;;;;9.15;7.07;;;;;;;;;;5026386;28;20060;-72
2022/04/11 06:54:52;;;;;;;8.55;4.43;;;;;;;;;;5026182;28;20037;-72
2022/04/11 06:57:17;;;;;;;5.57;3.97;;;;;;;;;;5026327;28;20025;-72
2022/04/11 06:59:42;;;;;;;7.28;3.90;;;;;;;;;;5025861;28;20387;-72
2022/04/11 07:02:07;;;;;;;4.10;3.20;;;;;;;;;;5025688;28;20044;-73
2022/04/11 07:04:33;;;;;;;5.07;3.40;;;;;;;;;;5026800;28;20036;-72
2022/04/11 07:06:58;;;;;;;5.63;3.20;;;;;;;;;;5026339;28;20302;-72
2022/04/11 07:09:23;;;;;;;3.70;3.10;;;;;;;;;;5020769;28;20541;-72
2022/04/11 07:11:49;;;;;;;3.80;3.05;;;;;;;;;;5022654;28;20128;-72
2022/04/11 07:14:14;;;;;;;6.80;3.53;;;;;;;;;;5005409;28;20467;-72
2022/04/11 07:16:39;;;;;;;6.10;3.58;;;;;;;;;;5023114;28;20265;-72
2022/04/11 07:19:06;;;;;;;5.43;3.47;;;;;;;;;;5024377;28;20056;-71
2022/04/11 07:21:32;;;;;;;5.85;3.60;;;;;;;;;;5022949;28;20033;-72
2022/04/11 07:23:57;;;;;;;5.47;3.55;;;;;;;;;;5023185;28;20171;-71
2022/04/11 07:26:23;;;;;;;5.60;3.08;;;;;;;;;;5021925;28;20029;-72
2022/04/11 07:28:48;;;;;;;4.25;3.33;;;;;;;;;;5022729;28;20021;-72
2022/04/11 07:31:14;;;;;;;7.07;3.38;;;;;;;;;;5022217;28;20029;-72
2022/04/11 07:33:40;;;;;;;4.40;3.30;;;;;;;;;;5022719;28;20332;-72
2022/04/11 07:36:05;;;;;;;3.60;2.90;;;;;;;;;;5022508;28;20043;-73
2022/04/11 07:38:31;;;;;;;4.10;2.95;;;;;;;;;;5021814;28;20044;-73
2022/04/11 07:40:56;;;;;;;5.95;4.07;;;;;;;;;;5025528;28;20017;-73
2022/04/11 07:43:21;;;;;;;6.25;3.70;;;;;;;;;;5027371;28;20048;-73
2022/04/11 07:45:48;;;;;;;5.97;3.60;;;;;;;;;;5027488;28;20103;-73
2022/04/11 07:48:13;;;;;;;2.70;2.50;;;;;;;;;;5039043;28;20021;-72
2022/04/11 07:50:39;;;;;;;6.45;3.00;;;;;;;;;;5031634;28;20094;-72
2022/04/11 07:53:04;;;;;;;5.78;3.28;;;;;;;;;;5032577;28;20021;-73
2022/04/11 07:55:31;;;;;;;5.40;3.05;;;;;;;;;;5034893;28;20024;-73
2022/04/11 07:57:56;;;;;;;6.18;3.03;;;;;;;;;;5020762;28;20029;-73
2022/04/11 08:00:23;;;;;;;5.18;3.10;;;;;;;;;;5025073;28;20059;-72
2022/04/11 08:02:56;;;;;;;7.55;4.00;;;;;;;;;;5025949;28;20044;-72
2022/04/11 08:05:23;;;;;;;7.80;2.72;;;;;;;;;;5027466;28;20031;-73
2022/04/11 08:07:49;;;;;;;10.55;3.78;;;;;;;;;;5027857;28;20082;-72
2022/04/11 08:10:15;;;;;;;4.70;3.10;;;;;;;;;;5029065;28;20021;-72
2022/04/11 08:12:41;;;;;;;3.95;2.60;;;;;;;;;;5030068;28;20234;-73
2022/04/11 08:15:07;;;;;;;5.63;2.35;;;;;;;;;;5028254;28;20083;-73
2022/04/11 08:17:32;;;;;;;8.68;2.88;;;;;;;;;;5029812;28;20159;-73
2022/04/11 08:19:58;;;;;;;5.45;2.63;;;;;;;;;;5028679;28;20120;-73
2022/04/11 08:22:23;;;;;;;7.07;3.80;;;;;;;;;;5028852;28;20029;-72
2022/04/11 08:24:48;;;;;;;7.22;4.20;;;;;;;;;;5028978;28;20025;-73
2022/04/11 08:27:15;;;;;;;10.07;4.27;;;;;;;;;;5027981;28;20479;-71
2022/04/11 08:29:40;;;;;;;7.18;3.17;;;;;;;;;;5068331;22;20313;-73
2022/04/11 08:32:06;;;;;;;8.07;2.80;;;;;;;;;;5049004;28;20302;-75
2022/04/11 08:34:31;;;;;;;5.95;2.50;;;;;;;;;;5044768;28;20029;-76
2022/04/11 08:36:56;;;;;;;6.63;2.43;;;;;;;;;;5046755;28;20463;-74
2022/04/11 08:39:22;;;;;;;7.80;2.88;;;;;;;;;;5045805;28;20557;-76
2022/04/11 08:41:47;;;;;;;9.47;2.50;;;;;;;;;;5046270;28;20024;-75
2022/04/11 08:44:16;;;;;;;5.47;1.98;;;;;;;;;;5046649;28;20768;-75
2022/04/11 08:46:41;;;;;;;5.72;1.77;;;;;;;;;;5045085;28;20091;-76
2022/04/11 08:49:07;;;;;;;3.95;2.08;;;;;;;;;;5045422;28;20021;-74
2022/04/11 08:51:34;;;;;;;6.30;2.10;;;;;;;;;;5046513;28;20796;-76
2022/04/11 08:54:01;;;;;;;5.35;1.80;;;;;;;;;;5045348;28;20394;-76
2022/04/11 08:56:28;;;;;;;3.83;2.13;;;;;;;;;;5045533;28;20450;-74
2022/04/11 08:58:53;;;;;;;3.33;2.58;;;;;;;;;;5046101;28;20405;-75
2022/04/11 09:01:19;;;;;;;2.72;1.23;;;;;;;;;;5045386;28;20104;-74
2022/04/11 09:03:44;;;;;;;3.10;1.38;;;;;;;;;;5046177;28;20359;-74
2022/04/11 09:06:13;;;;;;;2.95;1.60;;;;;;;;;;5044775;28;20036;-75
2022/04/11 09:08:52;;;;;;;1.42;1.20;;;;;;;;;;5044441;28;20029;-74
2022/04/11 09:11:34;;;;;;;4.00;1.77;;;;;;;;;;5044884;28;20025;-75
2022/04/11 09:14:01;;;;;;;2.63;1.20;;;;;;;;;;5045271;28;20020;-72
2022/04/11 09:16:28;;;;;;;1.75;1.25;;;;;;;;;;5044058;28;20017;-74
2022/04/11 09:18:55;;;;;;;2.15;1.10;;;;;;;;;;5044991;28;20029;-75
2022/04/11 09:21:22;;;;;;;1.83;1.20;;;;;;;;;;5043724;28;20078;-75
2022/04/11 09:23:49;;;;;;;2.60;1.50;;;;;;;;;;5044460;28;20025;-72
2022/04/11 09:26:22;;;;;;;2.50;1.40;;;;;;;;;;5026712;28;20102;-74
2022/04/11 09:29:04;;;;;;;2.60;1.30;;;;;;;;;;5044071;28;20044;-75
2022/04/11 09:31:33;;;;;;;2.63;1.20;;;;;;;;;;5044893;28;20052;-73
2022/04/11 09:34:12;;;;;;;2.33;1.15;;;;;;;;;;5044620;28;20082;-75
2022/04/11 09:37:08;;;;;;;2.60;1.20;;;;;;;;;;5043913;28;20217;-76
2022/04/11 09:39:36;;;;;;;1.50;1.00;;;;;;;;;;5031225;28;20041;-77
2022/04/11 09:42:05;;;;;;;1.67;1.20;;;;;;;;;;5044549;28;20021;-72
2022/04/11 09:44:35;;;;;;;1.65;1.10;;;;;;;;;;5044309;28;20047;-74
2022/04/11 09:47:05;;;;;;;3.70;1.30;;;;;;;;;;5043335;28;20122;-75
2022/04/11 09:49:32;;;;;;;3.13;1.20;;;;;;;;;;5044161;28;20017;-74
2022/04/11 09:52:04;;;;;;;2.22;1.40;;;;;;;;;;5027439;28;20080;-73
2022/04/11 09:54:31;;;;;;;1.73;1.25;;;;;;;;;;5045395;28;20028;-75
2022/04/11 09:57:00;;;;;;;4.47;1.48;;;;;;;;;;5042946;28;20087;-75
2022/04/11 09:59:26;;;;;;;2.72;1.27;;;;;;;;;;5044880;28;20111;-76
2022/04/11 10:01:54;;;;;;;3.30;2.42;;;;;;;;;;5039034;28;20166;-76
2022/04/11 10:04:19;;;;;;;4.25;1.80;;;;;;;;;;5043005;28;20067;-74
2022/04/11 10:06:45;;;;;;;2.67;1.23;;;;;;;;;;5042611;28;20056;-76
2022/04/11 10:09:15;;;;;;;3.03;1.35;;;;;;;;;;5038078;28;20024;-75
2022/04/11 10:11:44;;;;;;;3.15;1.33;;;;;;;;;;5047971;28;20512;-72
2022/04/11 10:14:17;;;;;;;1.77;1.20;;;;;;;;;;5046624;28;20390;-75
2022/04/11 10:16:43;;;;;;;1.55;1.10;;;;;;;;;;5047328;28;20021;-77
2022/04/11 10:19:11;;;;;;;1.52;1.10;;;;;;;;;;5046525;28;20047;-75
2022/04/11 10:21:41;;;;;;;2.03;1.20;;;;;;;;;;5047363;28;20389;-76
2022/04/11 10:24:34;;;;;;;1.40;1.10;;;;;;;;;;5046031;28;20478;-73
2022/04/11 10:27:23;;;;;;;1.98;1.10;;;;;;;;;;5046720;28;20021;-75
2022/04/11 10:29:50;;;;;;;2.03;1.15;;;;;;;;;;5046456;28;20029;-75
2022/04/11 10:32:18;;;;;;;2.20;1.00;;;;;;;;;;5047060;28;20032;-75
2022/04/11 10:34:53;;;;;;;1.25;1.10;;;;;;;;;;5046987;28;20052;-73
2022/04/11 10:37:20;;;;;;;2.10;1.02;;;;;;;;;;5047498;28;20073;-73
2022/04/11 10:39:48;;;;;;;1.30;1.20;;;;;;;;;;5046874;28;20021;-77
2022/04/11 10:42:24;;;;;;;2.00;1.20;;;;;;;;;;5047831;28;20024;-74
2022/04/11 10:44:53;;;;;;;2.67;1.30;;;;;;;;;;5047996;28;20052;-76
2022/04/11 10:47:26;;;;;;;2.50;1.20;;;;;;;;;;5046921;28;20021;-71
2022/04/11 10:49:53;;;;;;;1.58;0.93;;;;;;;;;;5046886;28;20355;-73
2022/04/11 10:52:33;;;;;;;2.17;1.08;;;;;;;;;;5047076;28;20029;-74
2022/04/11 10:55:12;;;;;;;1.08;0.98;;;;;;;;;;5045756;28;20024;-71
2022/04/11 10:57:43;;;;;;;2.67;1.00;;;;;;;;;;5047171;28;20025;-73
2022/04/11 11:00:14;;;;;;;1.80;1.10;;;;;;;;;;5046666;28;20032;-74
2022/04/11 11:02:59;;;;;;;3.50;1.38;;;;;;;;;;5046575;28;20029;-75
2022/04/11 11:05:36;;;;;;;2.10;1.17;;;;;;;;;;5047213;28;20474;-76
2022/04/11 11:08:14;;;;;;;1.58;1.05;;;;;;;;;;5047259;28;20043;-74
2022/04/11 11:10:40;;;;;;;2.20;1.23;;;;;;;;;;5046921;28;20028;-75
2022/04/11 11:13:34;;;;;;;1.52;1.17;;;;;;;;;;5044907;28;20055;-77
2022/04/11 11:16:00;;;;;;;1.92;1.20;;;;;;;;;;5045909;28;20017;-75
2022/04/11 11:18:27;;;;;;;1.67;1.13;;;;;;;;;;5044830;28;20055;-75
2022/04/11 11:20:55;;;;;;;3.08;1.25;;;;;;;;;;5046453;28;20218;-74
2022/04/11 11:23:30;;;;;;;1.92;1.20;;;;;;;;;;5045905;28;20521;-74
2022/04/11 11:26:09;;;;;;;1.83;0.80;;;;;;;;;;5044508;28;20055;-75
2022/04/11 11:28:35;;;;;;;2.50;1.00;;;;;;;;;;5045471;28;20032;-74
2022/04/11 11:31:01;;;;;;;3.80;1.35;;;;;;;;;;5046309;28;20025;-73
2022/04/11 11:33:27;;;;;;;2.17;0.90;;;;;;;;;;5046523;28;20224;-75
2022/04/11 11:35:54;;;;;;;2.17;1.10;;;;;;;;;;5045682;28;20048;-76
2022/04/11 11:38:31;;;;;;;1.60;1.20;;;;;;;;;;5046143;28;20029;-76
2022/04/11 11:41:03;;;;;;;2.00;1.20;;;;;;;;;;5050439;28;20039;-76
2022/04/11 11:43:29;;;;;;;4.18;1.30;;;;;;;;;;5050558;28;20063;-76
2022/04/11 11:46:03;;;;;;;2.13;1.20;;;;;;;;;;5050638;28;20033;-76
2022/04/11 11:48:30;;;;;;;2.25;1.10;;;;;;;;;;5049930;28;20025;-74
2022/04/11 11:50:58;;;;;;;3.08;1.30;;;;;;;;;;5048300;28;20498;-75
2022/04/11 11:53:25;;;;;;;2.38;1.02;;;;;;;;;;5048910;28;20203;-75
2022/04/11 11:55:50;;;;;;;2.05;1.20;;;;;;;;;;5050246;28;20427;-75
2022/04/11 11:58:16;;;;;;;1.65;1.10;;;;;;;;;;5048511;28;20100;-75
2022/04/11 12:00:46;;;;;;;1.67;1.15;;;;;;;;;;5050109;28;20036;-76
2022/04/11 12:06:03;;;;;;;1.20;0.80;;;;;;;;;;5048676;28;20097;-76
2022/04/11 12:08:30;;;;;;;1.40;1.10;;;;;;;;;;5048586;28;20182;-74
2022/04/11 12:10:58;;;;;;;1.63;0.90;;;;;;;;;;5030914;28;20880;-76
2022/04/11 12:13:32;;;;;;;1.90;1.00;;;;;;;;;;5049220;28;20394;-74
2022/04/11 12:16:15;;;;;;;2.38;1.10;;;;;;;;;;5049218;28;20025;-73
2022/04/11 12:18:50;;;;;;;0.95;0.88;;;;;;;;;;5048038;28;20116;-74
2022/04/11 12:21:16;;;;;;;1.80;1.05;;;;;;;;;;5031651;28;20537;-74
2022/04/11 12:23:48;;;;;;;1.42;1.10;;;;;;;;;;5048651;28;20505;-75
2022/04/11 12:26:31;;;;;;;1.98;1.00;;;;;;;;;;5046254;28;20013;-75
2022/04/11 12:28:57;;;;;;;1.30;0.80;;;;;;;;;;5048732;28;20029;-73
2022/04/11 12:31:23;;;;;;;1.70;0.75;;;;;;;;;;5048720;28;20029;-74
2022/04/11 12:33:52;;;;;;;2.50;1.10;;;;;;;;;;5052661;28;20021;-73
2022/04/11 12:36:28;;;;;;;1.77;1.00;;;;;;;;;;5047760;28;20107;-74
2022/04/11 12:38:53;;;;;;;2.40;1.05;;;;;;;;;;5048804;28;20478;-73
2022/04/11 12:41:29;;;;;;;1.70;1.08;;;;;;;;;;5049258;28;20079;-76
2022/04/11 12:44:04;;;;;;;2.40;1.20;;;;;;;;;;5048699;28;20280;-74
2022/04/11 12:46:30;;;;;;;2.35;1.30;;;;;;;;;;5047892;28;20032;-77
2022/04/11 12:48:56;;;;;;;4.80;2.25;;;;;;;;;;5048783;28;20433;-73
2022/04/11 12:51:22;;;;;;;1.15;0.90;;;;;;;;;;5047626;28;20025;-74
2022/04/11 12:53:47;;;;;;;1.60;1.10;;;;;;;;;;5048379;28;20060;-75
2022/04/11 12:56:13;;;;;;;0.95;0.77;;;;;;;;;;5031036;28;20378;-75
2022/04/11 12:58:38;;;;;;;2.42;0.90;;;;;;;;;;5048396;28;20482;-77
2022/04/11 13:01:03;;;;;;;1.75;0.82;;;;;;;;;;5048840;28;20036;-74
2022/04/11 13:03:30;;;;;;;2.35;1.10;;;;;;;;;;5049054;28;20017;-75
2022/04/11 13:05:57;;;;;;;2.08;1.00;;;;;;;;;;5047059;28;20082;-75
2022/04/11 13:08:24;;;;;;;1.05;0.93;;;;;;;;;;5048053;28;20466;-75
2022/04/11 13:10:49;;;;;;;1.52;1.05;;;;;;;;;;5048793;28;20056;-75
2022/04/11 13:13:15;;;;;;;1.88;0.90;;;;;;;;;;5048231;28;20513;-75
2022/04/11 13:18:24;;;;;;;1.63;1.10;;;;;;;;;;5048887;28;20059;-77
2022/04/11 13:18:26;;;;;;;1.75;1.00;;;;;;;;;;5047539;28;20041;-75
2022/04/11 13:20:52;;;;;;;1.17;0.95;;;;;;;;;;5069288;28;20020;-74
2022/04/11 13:23:17;;;;;;;1.10;0.75;;;;;;;;;;5050512;28;20390;-74
2022/04/11 13:25:42;;;;;;;2.80;1.02;;;;;;;;;;5068677;28;20029;-75
2022/04/11 13:28:09;;;;;;;1.58;0.90;;;;;;;;;;5068241;28;20220;-77
2022/04/11 13:30:34;;;;;;;1.35;0.90;;;;;;;;;;5068015;28;20381;-76
2022/04/11 13:33:00;;;;;;;2.97;1.00;;;;;;;;;;5064492;28;20020;-71
2022/04/11 13:35:25;;;;;;;1.50;1.00;;;;;;;;;;5048315;28;20025;-79
2022/04/11 13:37:50;;;;;;;1.50;0.90;;;;;;;;;;5047908;28;20380;-75
2022/04/11 13:40:16;;;;;;;1.73;0.98;;;;;;;;;;5048237;28;20027;-77
2022/04/11 13:42:41;;;;;;;1.85;0.93;;;;;;;;;;5047818;28;20025;-75
2022/04/11 13:45:07;;;;;;;1.30;0.90;;;;;;;;;;5047824;28;20502;-74
2022/04/11 13:47:32;;;;;;;3.17;0.80;;;;;;;;;;5029165;28;20323;-77
2022/04/11 13:49:57;;;;;;;3.38;1.10;;;;;;;;;;5048337;28;20060;-77
2022/04/11 13:52:23;;;;;;;1.35;0.80;;;;;;;;;;5048435;28;20032;-76
2022/04/11 13:54:48;;;;;;;2.70;0.90;;;;;;;;;;5047794;28;20031;-76
2022/04/11 13:57:14;;;;;;;2.63;1.00;;;;;;;;;;5047953;28;20112;-74
2022/04/11 13:59:40;;;;;;;1.40;0.93;;;;;;;;;;5029840;28;20028;-75
2022/04/11 14:02:10;;;;;;;2.83;0.90;;;;;;;;;;5046907;28;20020;-77
2022/04/11 14:04:35;;;;;;;1.48;0.93;;;;;;;;;;5046901;28;20033;-71
2022/04/11 14:07:00;;;;;;;1.42;0.85;;;;;;;;;;5047701;28;20054;-75
2022/04/11 14:09:26;;;;;;;0.68;0.65;;;;;;;;;;5028942;28;20021;-75
2022/04/11 14:11:51;;;;;;;1.67;0.98;;;;;;;;;;5048665;28;20035;-77
2022/04/11 14:14:16;;;;;;;3.13;1.00;;;;;;;;;;5047450;28;20021;-74
2022/04/11 14:16:42;;;;;;;1.65;0.85;;;;;;;;;;5045299;28;20075;-74
2022/04/11 14:19:07;;;;;;;1.52;0.90;;;;;;;;;;5043436;28;20032;-79
2022/04/11 14:21:32;;;;;;;1.30;0.70;;;;;;;;;;5045467;28;20016;-76
2022/04/11 14:23:58;;;;;;;1.30;0.80;;;;;;;;;;5044891;28;20021;-72
2022/04/11 14:26:24;;;;;;;1.52;0.80;;;;;;;;;;5045331;28;20028;-76
2022/04/11 14:28:49;;;;;;;2.47;0.80;;;;;;;;;;5042656;28;20036;-75
2022/04/11 14:31:15;;;;;;;2.65;0.85;;;;;;;;;;5044285;28;20025;-76
2022/04/11 14:33:41;;;;;;;3.72;1.10;;;;;;;;;;5056330;22;20205;-72
2022/04/11 14:36:09;;;;;;;2.33;1.10;;;;;;;;;;5043582;28;20024;-75
2022/04/11 14:38:37;;;;;;;1.58;0.77;;;;;;;;;;5044556;28;20025;-75
2022/04/11 14:41:02;;;;;;;0.95;0.60;;;;;;;;;;5044732;28;20553;-73
2022/04/11 14:43:27;;;;;;;1.92;0.90;;;;;;;;;;5044170;28;20025;-71
2022/04/11 14:45:53;;;;;;;0.93;0.70;;;;;;;;;;5045170;28;20070;-73